Time;durP1;ratioP1;P1;durP2;ratioP2;P2;SDS_P1;SDS_P2;PMS_P1;PMS_P2;Temp;Humidity;BMP_temperature;BMP_pressure;BME280_temperature;BME280_humidity;BME280_pressure;Samples;Min_cycle;Max_cycle;Signal;HPM_P1;HPM_P2
2022/08/13 00:04:32;;;;;;;3.72;2.80;;;24.30;69.10;;;;;;10423151;28;20036;-62
2022/08/13 00:09:36;;;;;;;4.95;3.03;;;24.30;69.20;;;;;;10422207;28;20029;-62
2022/08/13 00:14:37;;;;;;;3.65;2.92;;;24.20;69.20;;;;;;10421477;28;20039;-62
2022/08/13 00:19:39;;;;;;;3.22;2.90;;;24.20;69.20;;;;;;10418779;28;20033;-62
2022/08/13 00:24:40;;;;;;;4.13;3.15;;;24.20;69.30;;;;;;10424161;28;20400;-62
2022/08/13 00:29:41;;;;;;;3.38;3.08;;;24.20;69.30;;;;;;10420778;28;20035;-62
2022/08/13 00:34:43;;;;;;;3.00;2.70;;;24.10;69.40;;;;;;10419999;28;20053;-62
2022/08/13 00:39:44;;;;;;;3.70;2.90;;;24.10;69.40;;;;;;10418975;28;20025;-62
2022/08/13 00:44:45;;;;;;;3.28;2.88;;;24.10;69.50;;;;;;10421496;28;20045;-62
2022/08/13 00:49:47;;;;;;;4.28;3.17;;;24.10;69.50;;;;;;10417983;28;20025;-62
2022/08/13 00:54:49;;;;;;;5.25;3.13;;;24.00;69.50;;;;;;10417696;28;20029;-62
2022/08/13 00:59:51;;;;;;;3.33;2.75;;;24.00;69.50;;;;;;10419260;28;20033;-62
2022/08/13 01:04:53;;;;;;;2.97;2.67;;;24.00;69.50;;;;;;10416753;28;20044;-62
2022/08/13 01:09:54;;;;;;;3.40;2.85;;;24.00;69.50;;;;;;10417471;28;20029;-62
2022/08/13 01:14:57;;;;;;;3.10;2.80;;;23.90;69.50;;;;;;10420544;28;20552;-62
2022/08/13 01:19:58;;;;;;;4.22;2.80;;;23.90;69.50;;;;;;10418645;28;20055;-62
2022/08/13 01:25:01;;;;;;;5.00;3.22;;;23.90;69.50;;;;;;10423316;28;20481;-62
2022/08/13 01:30:05;;;;;;;3.28;2.70;;;23.80;69.50;;;;;;10417325;28;20060;-62
2022/08/13 01:35:06;;;;;;;3.88;2.90;;;23.80;69.50;;;;;;10418775;28;20482;-62
2022/08/13 01:40:08;;;;;;;3.60;3.03;;;23.80;69.50;;;;;;10418412;28;20033;-62
2022/08/13 01:45:11;;;;;;;3.58;3.00;;;23.70;69.40;;;;;;10419221;28;20025;-62
2022/08/13 01:50:30;;;;;;;3.00;2.70;;;23.70;69.40;;;;;;10417208;28;20169;-62
2022/08/13 01:55:39;;;;;;;5.03;2.97;;;23.70;69.40;;;;;;10418270;28;20033;-62
2022/08/13 02:00:44;;;;;;;3.35;2.80;;;23.70;69.50;;;;;;10422522;28;20021;-62
2022/08/13 02:05:47;;;;;;;2.78;2.53;;;23.60;69.40;;;;;;10419456;28;20022;-62
2022/08/13 02:10:52;;;;;;;4.07;3.10;;;23.60;69.40;;;;;;10413696;28;20021;-62
2022/08/13 02:15:53;;;;;;;3.05;2.63;;;23.60;69.40;;;;;;10424236;28;20041;-62
2022/08/13 02:20:57;;;;;;;3.13;2.60;;;23.50;69.40;;;;;;10425671;28;20045;-62
2022/08/13 02:25:59;;;;;;;3.13;2.72;;;23.50;69.40;;;;;;10427603;28;20041;-62
2022/08/13 02:31:00;;;;;;;3.20;2.70;;;23.50;69.50;;;;;;10427303;28;20092;-62
2022/08/13 02:36:10;;;;;;;2.97;2.67;;;23.50;69.50;;;;;;10424925;28;20511;-62
2022/08/13 02:46:30;;;;;;;3.00;2.70;;;23.40;69.50;;;;;;10428441;28;20044;-62
2022/08/13 02:51:31;;;;;;;3.15;2.85;;;23.30;69.50;;;;;;10427872;28;20034;-62
2022/08/13 02:56:33;;;;;;;3.13;2.72;;;23.30;69.70;;;;;;10421615;28;20033;-62
2022/08/13 03:01:35;;;;;;;3.15;2.65;;;23.30;69.80;;;;;;10425221;28;20065;-62
2022/08/13 03:06:36;;;;;;;3.42;3.08;;;23.20;69.70;;;;;;10423736;28;20083;-62
2022/08/13 03:11:38;;;;;;;3.17;2.85;;;23.20;69.70;;;;;;10425004;28;20044;-62
2022/08/13 03:16:41;;;;;;;2.83;2.60;;;23.20;69.70;;;;;;10421211;28;20390;-62
2022/08/13 03:21:43;;;;;;;3.03;2.58;;;23.20;69.70;;;;;;10424897;28;20120;-62
2022/08/13 03:26:44;;;;;;;3.20;2.90;;;23.10;69.70;;;;;;10425574;28;20391;-62
2022/08/13 03:31:46;;;;;;;3.40;2.97;;;23.10;69.70;;;;;;10423877;28;20082;-62
2022/08/13 03:36:47;;;;;;;3.88;2.78;;;23.10;69.80;;;;;;10419574;28;20037;-62
2022/08/13 03:41:47;;;;;;;3.08;2.70;;;23.00;69.80;;;;;;10419496;28;20049;-62
2022/08/13 03:46:48;;;;;;;3.78;3.03;;;23.00;69.90;;;;;;10422203;28;20056;-63
2022/08/13 03:51:49;;;;;;;6.10;2.72;;;23.00;69.90;;;;;;10433037;28;20023;-62
2022/08/13 03:56:49;;;;;;;4.95;2.75;;;23.00;69.90;;;;;;10420241;28;20037;-62
2022/08/13 04:01:51;;;;;;;2.95;2.67;;;22.90;69.90;;;;;;10422374;28;20049;-62
2022/08/13 04:06:52;;;;;;;3.95;2.92;;;22.90;69.90;;;;;;10421139;28;20607;-62
2022/08/13 04:11:52;;;;;;;3.42;2.90;;;22.90;70.00;;;;;;10421459;28;20098;-62
2022/08/13 04:16:53;;;;;;;4.20;2.90;;;22.80;70.00;;;;;;10419626;28;20028;-62
2022/08/13 04:21:54;;;;;;;3.10;2.80;;;22.80;70.00;;;;;;10425211;28;20074;-62
2022/08/13 04:26:58;;;;;;;3.08;2.50;;;22.80;70.00;;;;;;10421580;28;20477;-62
2022/08/13 04:32:00;;;;;;;5.93;3.05;;;22.80;70.10;;;;;;10422237;28;20021;-62
2022/08/13 04:37:03;;;;;;;3.35;2.60;;;22.70;70.00;;;;;;10415273;28;20049;-63
2022/08/13 04:42:07;;;;;;;3.35;2.45;;;22.70;70.00;;;;;;10358200;28;20152;-63
2022/08/13 04:47:07;;;;;;;3.13;2.40;;;22.70;70.00;;;;;;10331723;28;20082;-63
2022/08/13 04:52:08;;;;;;;3.58;2.60;;;22.70;69.90;;;;;;10335579;28;20075;-63
2022/08/13 04:57:09;;;;;;;4.28;2.90;;;22.60;69.90;;;;;;10334388;28;20049;-63
2022/08/13 05:02:10;;;;;;;2.65;2.40;;;22.60;69.90;;;;;;10332746;28;20525;-63
2022/08/13 05:07:10;;;;;;;5.47;2.50;;;22.60;69.80;;;;;;10331780;28;20106;-64
2022/08/13 05:12:11;;;;;;;3.50;2.72;;;22.60;69.90;;;;;;10335594;28;20025;-63
2022/08/13 05:17:12;;;;;;;3.70;2.50;;;22.60;69.80;;;;;;10330131;28;20049;-63
2022/08/13 05:22:12;;;;;;;3.85;2.55;;;22.50;69.70;;;;;;10336385;28;20557;-63
2022/08/13 05:27:13;;;;;;;5.05;2.70;;;22.50;69.70;;;;;;10334292;28;20048;-62
2022/08/13 05:32:15;;;;;;;2.65;2.35;;;22.50;69.70;;;;;;10333752;28;20029;-62
2022/08/13 05:37:16;;;;;;;2.95;2.30;;;22.50;69.60;;;;;;10333545;28;20390;-62
2022/08/13 05:42:20;;;;;;;3.58;2.75;;;22.50;69.50;;;;;;10333004;28;20698;-62
2022/08/13 05:47:21;;;;;;;3.60;2.60;;;22.50;69.50;;;;;;10330232;28;20149;-62
2022/08/13 05:52:26;;;;;;;3.08;2.40;;;22.50;69.40;;;;;;10339326;28;20298;-62
2022/08/13 05:57:27;;;;;;;3.10;2.70;;;22.50;69.40;;;;;;10346170;28;20582;-62
2022/08/13 06:07:57;;;;;;;5.72;3.17;;;22.40;69.10;;;;;;10385993;22;20666;-67
2022/08/13 06:13:13;;;;;;;4.05;3.35;;;22.20;69.60;;;;;;10359486;28;20029;-68
2022/08/13 06:18:15;;;;;;;3.40;3.10;;;22.00;70.20;;;;;;10474503;22;20415;-65
2022/08/13 06:23:16;;;;;;;3.33;2.90;;;21.80;70.60;;;;;;10428509;22;20052;-67
2022/08/13 06:28:19;;;;;;;4.97;2.92;;;21.70;70.90;;;;;;10417356;28;20114;-67
2022/08/13 06:33:22;;;;;;;4.72;3.13;;;21.60;71.30;;;;;;10417529;28;20313;-67
2022/08/13 06:38:29;;;;;;;3.65;3.28;;;21.60;71.60;;;;;;10417403;28;20089;-67
2022/08/13 06:43:36;;;;;;;5.13;3.00;;;21.50;71.70;;;;;;10406382;28;20020;-67
2022/08/13 06:48:41;;;;;;;3.10;2.63;;;21.50;71.80;;;;;;10403123;28;20024;-66
2022/08/13 06:53:44;;;;;;;8.80;3.33;;;21.60;71.90;;;;;;10414157;28;20121;-67
2022/08/13 06:58:47;;;;;;;3.33;2.88;;;21.60;72.10;;;;;;10404073;28;20272;-67
2022/08/13 07:08:50;;;;;;;5.23;2.40;;;21.70;72.30;;;;;;10441230;22;20830;-67
2022/08/13 07:13:53;;;;;;;2.95;2.60;;;21.80;72.50;;;;;;10366165;28;20126;-66
2022/08/13 07:18:54;;;;;;;4.63;2.22;;;21.80;72.20;;;;;;10363062;28;20052;-67
2022/08/13 07:23:55;;;;;;;2.30;2.10;;;21.90;72.00;;;;;;10362225;28;21014;-67
2022/08/13 07:28:56;;;;;;;4.15;2.45;;;22.00;71.80;;;;;;10360326;28;20317;-67
2022/08/13 07:34:01;;;;;;;3.13;2.20;;;22.10;71.70;;;;;;10360350;28;20370;-67
2022/08/13 07:39:11;;;;;;;2.50;2.30;;;22.20;71.40;;;;;;10364704;28;20068;-67
2022/08/13 07:44:20;;;;;;;3.75;2.30;;;22.20;71.40;;;;;;10364995;28;21037;-67
2022/08/13 07:49:22;;;;;;;2.65;1.83;;;22.40;71.40;;;;;;10357645;28;20391;-66
2022/08/13 07:54:23;;;;;;;1.98;1.70;;;22.50;71.10;;;;;;10338363;28;20025;-67
2022/08/13 07:59:26;;;;;;;3.45;2.10;;;22.60;70.90;;;;;;10362275;28;20363;-67
2022/08/13 08:04:30;;;;;;;3.55;2.10;;;22.70;70.60;;;;;;10358776;28;20362;-66
2022/08/13 08:09:31;;;;;;;2.25;2.05;;;22.90;70.50;;;;;;10357029;28;20064;-66
2022/08/13 08:14:33;;;;;;;4.70;2.70;;;23.10;70.90;;;;;;10359239;28;20032;-66
2022/08/13 08:19:34;;;;;;;2.72;2.00;;;23.20;70.40;;;;;;10405773;22;20053;-66
2022/08/13 08:24:38;;;;;;;3.70;1.95;;;23.30;70.00;;;;;;10376216;28;20056;-67
2022/08/13 08:29:40;;;;;;;2.10;1.90;;;23.50;69.50;;;;;;10388518;28;20033;-66
2022/08/13 08:34:44;;;;;;;7.05;2.10;;;23.60;69.20;;;;;;10382595;28;20269;-64
2022/08/13 08:45:12;;;;;;;3.13;1.80;;;23.90;68.90;;;;;;10373093;28;20028;-66
2022/08/13 08:50:13;;;;;;;3.55;2.20;;;24.10;68.90;;;;;;10373496;28;20410;-65
2022/08/13 08:55:16;;;;;;;2.42;1.95;;;24.20;68.80;;;;;;10380172;28;20487;-65
2022/08/13 09:00:19;;;;;;;2.13;1.92;;;24.40;68.50;;;;;;10380094;28;20586;-66
2022/08/13 09:05:25;;;;;;;2.50;2.08;;;24.50;68.10;;;;;;10372747;28;20595;-66
2022/08/13 09:10:26;;;;;;;2.85;1.80;;;24.60;68.00;;;;;;10380554;28;20115;-66
2022/08/13 09:15:27;;;;;;;2.05;1.85;;;24.80;67.70;;;;;;10377543;28;20108;-65
2022/08/13 09:20:30;;;;;;;3.20;2.20;;;24.80;67.50;;;;;;10378051;28;20951;-65
2022/08/13 09:25:31;;;;;;;4.82;2.10;;;25.00;67.10;;;;;;10385423;28;20729;-65
2022/08/13 09:30:32;;;;;;;3.15;2.10;;;25.10;66.70;;;;;;10375668;28;20889;-64
2022/08/13 09:35:33;;;;;;;3.35;2.38;;;25.30;66.40;;;;;;10373399;28;20095;-65
2022/08/13 09:40:40;;;;;;;3.00;2.08;;;25.30;66.40;;;;;;10376675;28;20044;-65
2022/08/13 09:45:41;;;;;;;3.58;2.08;;;25.50;67.00;;;;;;10386539;28;20431;-64
2022/08/13 09:50:42;;;;;;;2.33;2.13;;;25.50;66.00;;;;;;10389921;28;20048;-64
2022/08/13 09:55:43;;;;;;;2.40;2.20;;;25.60;65.70;;;;;;10387084;28;20495;-65
2022/08/13 10:00:46;;;;;;;2.85;2.22;;;25.70;65.30;;;;;;10386248;28;20067;-65
2022/08/13 10:05:47;;;;;;;3.75;2.05;;;25.80;64.90;;;;;;10380771;28;20037;-66
2022/08/13 10:10:48;;;;;;;4.03;2.20;;;25.90;64.30;;;;;;10385136;28;20141;-65
2022/08/13 10:15:49;;;;;;;3.20;2.55;;;26.10;63.80;;;;;;10383254;28;20032;-65
2022/08/13 10:20:52;;;;;;;2.83;2.30;;;26.20;63.40;;;;;;10373275;28;20834;-65
2022/08/13 10:25:53;;;;;;;4.38;2.33;;;26.30;63.50;;;;;;10378795;28;20043;-65
2022/08/13 10:30:54;;;;;;;2.05;1.95;;;26.20;63.30;;;;;;10380865;28;20212;-64
2022/08/13 10:35:58;;;;;;;5.75;2.30;;;26.40;62.90;;;;;;10376670;28;20859;-65
2022/08/13 10:41:00;;;;;;;2.88;1.92;;;26.50;62.80;;;;;;10378926;28;20046;-64
2022/08/13 10:46:01;;;;;;;4.85;1.98;;;26.70;62.20;;;;;;10392685;28;20559;-65
2022/08/13 10:51:04;;;;;;;3.67;1.90;;;26.80;62.10;;;;;;10393103;28;20056;-65
2022/08/13 10:56:05;;;;;;;1.65;1.55;;;26.80;61.30;;;;;;10384237;28;20047;-65
2022/08/13 11:06:15;;;;;;;2.70;1.65;;;27.00;59.90;;;;;;10289013;28;20049;-65
2022/08/13 11:11:15;;;;;;;1.67;1.58;;;27.10;59.20;;;;;;10267283;28;20061;-63
2022/08/13 11:21:36;;;;;;;1.95;1.77;;;27.30;59.90;;;;;;10270569;28;20061;-64
2022/08/13 11:26:37;;;;;;;2.60;2.15;;;27.40;60.20;;;;;;10270392;28;20864;-64
2022/08/13 11:31:38;;;;;;;2.10;1.90;;;27.50;58.70;;;;;;10272782;28;20014;-64
2022/08/13 11:36:38;;;;;;;2.25;1.65;;;27.60;58.40;;;;;;10284095;28;21152;-64
2022/08/13 11:41:39;;;;;;;1.80;1.70;;;27.70;58.10;;;;;;10296514;28;20138;-64
2022/08/13 11:46:40;;;;;;;2.95;1.80;;;27.80;58.20;;;;;;10286618;28;20041;-64
2022/08/13 11:51:44;;;;;;;2.20;2.00;;;27.70;58.30;;;;;;10283990;28;20037;-64
2022/08/13 11:56:45;;;;;;;2.45;2.03;;;27.50;58.70;;;;;;10289363;28;20041;-61
2022/08/13 12:01:53;;;;;;;2.60;1.90;;;27.30;59.30;;;;;;10277865;28;20050;-61
2022/08/13 12:06:53;;;;;;;3.13;2.05;;;27.20;59.70;;;;;;10278951;28;20041;-60
2022/08/13 12:11:54;;;;;;;2.92;1.67;;;27.10;59.90;;;;;;10276230;28;20073;-61
2022/08/13 12:16:56;;;;;;;2.03;1.80;;;27.00;60.10;;;;;;10276982;28;20907;-60
2022/08/13 12:21:59;;;;;;;1.80;1.70;;;27.00;60.20;;;;;;10289995;28;20356;-60
2022/08/13 12:27:04;;;;;;;1.75;1.65;;;27.00;60.30;;;;;;10284086;28;20084;-61
2022/08/13 12:32:05;;;;;;;2.40;1.90;;;27.00;60.50;;;;;;10286120;28;20073;-60
2022/08/13 12:37:05;;;;;;;2.10;1.80;;;27.00;60.50;;;;;;10289310;28;20170;-60
2022/08/13 12:42:06;;;;;;;4.10;1.88;;;27.00;60.50;;;;;;10284698;28;20026;-60
2022/08/13 12:47:10;;;;;;;1.92;1.83;;;27.00;60.60;;;;;;10283653;28;21009;-62
2022/08/13 12:52:10;;;;;;;2.03;1.83;;;27.00;60.70;;;;;;10275257;28;20882;-64
2022/08/13 12:57:11;;;;;;;3.08;1.80;;;27.00;60.70;;;;;;10281269;28;20398;-61
2022/08/13 13:02:12;;;;;;;2.10;1.90;;;27.00;60.60;;;;;;10260605;28;20201;-62
2022/08/13 13:07:13;;;;;;;2.08;1.98;;;27.10;60.80;;;;;;10263143;28;20049;-61
2022/08/13 13:12:14;;;;;;;2.25;1.70;;;27.10;60.70;;;;;;10276337;28;20034;-61
2022/08/13 13:17:15;;;;;;;2.00;1.80;;;27.10;60.80;;;;;;10265831;28;20111;-63
2022/08/13 13:22:15;;;;;;;2.10;1.90;;;27.20;60.90;;;;;;10266574;28;20479;-60
2022/08/13 13:27:16;;;;;;;5.35;1.75;;;27.20;60.90;;;;;;10264412;28;20403;-63
2022/08/13 13:32:17;;;;;;;1.95;1.80;;;27.30;61.20;;;;;;10267657;28;20088;-60
2022/08/13 13:37:19;;;;;;;2.15;2.00;;;27.30;61.30;;;;;;10254138;28;20048;-61
2022/08/13 13:42:25;;;;;;;2.03;1.90;;;27.50;61.10;;;;;;10268661;28;20033;-63
2022/08/13 13:47:29;;;;;;;2.10;1.90;;;27.50;61.00;;;;;;10264408;28;20227;-61
2022/08/13 13:52:30;;;;;;;3.17;2.00;;;27.60;61.00;;;;;;10273799;28;20104;-62
2022/08/13 13:57:30;;;;;;;2.08;1.95;;;27.70;61.40;;;;;;10278225;28;20111;-61
2022/08/13 14:02:33;;;;;;;2.28;2.00;;;27.80;61.80;;;;;;10272927;28;20042;-61
2022/08/13 14:07:34;;;;;;;2.30;2.10;;;27.90;62.00;;;;;;10285297;28;20484;-65
2022/08/13 14:12:35;;;;;;;2.35;2.03;;;27.90;62.00;;;;;;10284475;28;20027;-62
2022/08/13 14:17:37;;;;;;;3.28;1.80;;;28.00;62.00;;;;;;10282513;28;20454;-61
2022/08/13 14:22:42;;;;;;;1.70;1.60;;;28.10;62.20;;;;;;10293723;28;20484;-61
2022/08/13 14:27:44;;;;;;;2.08;1.88;;;28.20;62.40;;;;;;10283500;28;20906;-61
2022/08/13 14:32:45;;;;;;;2.03;1.83;;;28.30;62.50;;;;;;10269220;28;20150;-61
2022/08/13 14:37:48;;;;;;;2.55;2.00;;;28.40;62.50;;;;;;10281142;28;20079;-62
2022/08/13 14:42:52;;;;;;;2.60;1.88;;;28.50;62.60;;;;;;10282811;28;20088;-61
2022/08/13 14:47:54;;;;;;;1.90;1.80;;;28.60;62.60;;;;;;10284760;28;20294;-61
2022/08/13 14:52:58;;;;;;;2.00;1.90;;;28.70;62.50;;;;;;10277172;28;20129;-61
2022/08/13 14:58:00;;;;;;;2.25;2.05;;;28.80;62.60;;;;;;10280456;28;20460;-62
2022/08/13 15:03:01;;;;;;;3.25;1.80;;;28.90;62.50;;;;;;10286282;28;20127;-61
2022/08/13 15:08:03;;;;;;;2.65;2.00;;;29.00;62.50;;;;;;10288835;28;20026;-63
2022/08/13 15:13:05;;;;;;;3.63;2.30;;;29.00;62.50;;;;;;10287513;28;20033;-63
2022/08/13 15:18:07;;;;;;;2.25;2.03;;;29.10;62.50;;;;;;10276642;28;20155;-64
2022/08/13 15:23:09;;;;;;;2.03;1.88;;;29.20;62.40;;;;;;10297936;28;20506;-64
2022/08/13 15:28:10;;;;;;;2.15;1.95;;;29.40;62.30;;;;;;10289963;28;20688;-65
2022/08/13 15:33:18;;;;;;;2.00;1.90;;;29.50;62.30;;;;;;10280542;28;20618;-63
2022/08/13 15:38:23;;;;;;;2.20;2.00;;;29.60;62.40;;;;;;10285152;28;20352;-64
2022/08/13 15:43:29;;;;;;;2.33;2.13;;;29.60;62.40;;;;;;10283056;28;20754;-66
2022/08/13 15:48:32;;;;;;;2.55;2.20;;;29.70;62.20;;;;;;10290148;28;20033;-62
2022/08/13 15:53:34;;;;;;;2.58;2.33;;;29.80;62.20;;;;;;10289742;28;20175;-62
2022/08/13 15:58:35;;;;;;;2.30;2.10;;;29.80;62.10;;;;;;10269290;28;20038;-62
2022/08/13 16:03:37;;;;;;;2.25;2.05;;;29.80;62.30;;;;;;10271057;28;20046;-62
2022/08/13 16:08:39;;;;;;;2.28;2.10;;;29.80;62.00;;;;;;10288286;28;20157;-64
2022/08/13 16:13:40;;;;;;;2.10;2.00;;;29.80;62.30;;;;;;10282653;28;20560;-62
2022/08/13 16:18:42;;;;;;;2.67;1.90;;;29.70;62.80;;;;;;10286712;28;20605;-62
2022/08/13 16:23:43;;;;;;;2.28;2.08;;;29.60;63.10;;;;;;10288413;28;20449;-63
2022/08/13 16:28:45;;;;;;;2.25;2.05;;;29.60;63.40;;;;;;10291906;28;20042;-64
2022/08/13 16:33:47;;;;;;;3.67;2.10;;;29.50;63.60;;;;;;10276641;28;20774;-63
2022/08/13 16:38:48;;;;;;;2.85;2.30;;;29.40;63.80;;;;;;10292112;28;20163;-63
2022/08/13 16:43:49;;;;;;;2.03;1.90;;;29.30;64.00;;;;;;10283344;28;20516;-63
2022/08/13 16:48:50;;;;;;;2.30;2.10;;;29.20;64.40;;;;;;10298100;28;20903;-63
2022/08/13 16:53:54;;;;;;;2.20;2.00;;;29.20;64.90;;;;;;10294140;28;20536;-64
2022/08/13 16:58:57;;;;;;;3.70;3.25;;;29.20;64.70;;;;;;10287377;28;20064;-63
2022/08/13 17:09:17;;;;;;;4.72;4.25;;;29.00;61.40;;;;;;10282556;28;20520;-65
2022/08/13 17:14:20;;;;;;;5.80;4.40;;;28.90;60.60;;;;;;10280348;28;20227;-63
2022/08/13 17:19:22;;;;;;;4.20;3.83;;;28.80;60.20;;;;;;10271798;28;20859;-63
2022/08/13 17:24:27;;;;;;;8.07;4.55;;;28.70;60.30;;;;;;10277260;28;20104;-63
2022/08/13 17:29:29;;;;;;;5.00;4.25;;;28.60;60.30;;;;;;10274708;28;20160;-64
2022/08/13 17:34:31;;;;;;;5.55;4.13;;;28.40;60.50;;;;;;10265976;28;20036;-65
2022/08/13 17:39:32;;;;;;;5.32;4.40;;;28.30;60.70;;;;;;10270811;28;20041;-70
2022/08/13 17:44:33;;;;;;;5.40;4.45;;;28.30;60.80;;;;;;10279672;28;20026;-63
2022/08/13 17:49:36;;;;;;;6.13;4.28;;;28.20;61.20;;;;;;10284134;28;20325;-66
2022/08/13 17:54:37;;;;;;;5.10;4.50;;;28.20;61.40;;;;;;10283771;28;20037;-67
2022/08/13 17:59:38;;;;;;;4.57;4.18;;;28.00;61.50;;;;;;10271639;28;20535;-64
2022/08/13 18:04:39;;;;;;;6.22;4.53;;;27.90;61.80;;;;;;10288687;28;20602;-63
2022/08/13 18:09:41;;;;;;;4.47;4.07;;;27.80;62.30;;;;;;10275789;28;20029;-65
2022/08/13 18:14:42;;;;;;;5.18;4.40;;;27.70;62.90;;;;;;10292210;28;20503;-65
2022/08/13 18:19:43;;;;;;;6.15;4.55;;;27.60;63.40;;;;;;10292546;28;20895;-65
2022/08/13 18:24:44;;;;;;;7.60;4.53;;;27.50;63.90;;;;;;10283989;28;20663;-66
2022/08/13 18:29:44;;;;;;;8.00;4.55;;;27.40;64.00;;;;;;10287101;28;20956;-65
2022/08/13 18:34:45;;;;;;;7.78;4.63;;;27.30;64.10;;;;;;10297181;28;20530;-65
2022/08/13 18:39:46;;;;;;;5.82;4.22;;;27.20;64.50;;;;;;10302162;28;20657;-66
2022/08/13 18:44:47;;;;;;;6.78;4.60;;;27.10;64.80;;;;;;10282698;28;20525;-66
2022/08/13 18:49:48;;;;;;;5.90;4.35;;;27.00;65.10;;;;;;10282880;28;20274;-66
2022/08/13 18:54:49;;;;;;;10.75;5.53;;;27.00;65.40;;;;;;10290044;28;20022;-66
2022/08/13 18:59:50;;;;;;;5.80;4.60;;;26.70;65.80;;;;;;10285266;28;20042;-66
2022/08/13 19:04:50;;;;;;;11.45;5.43;;;26.60;66.40;;;;;;10282892;28;20206;-66
2022/08/13 19:09:51;;;;;;;17.20;6.78;;;26.50;66.80;;;;;;10282679;28;20080;-66
2022/08/13 19:14:52;;;;;;;45.47;10.32;;;26.40;67.20;;;;;;10276051;28;20891;-67
2022/08/13 19:19:53;;;;;;;48.53;10.88;;;26.40;68.00;;;;;;10282660;28;20928;-66
2022/08/13 19:24:54;;;;;;;33.13;8.90;;;26.30;68.50;;;;;;10277828;28;20057;-67
2022/08/13 19:29:55;;;;;;;24.13;7.22;;;26.10;68.90;;;;;;10294106;28;20040;-68
2022/08/13 19:34:57;;;;;;;11.77;5.82;;;25.90;69.00;;;;;;10291586;28;20022;-65
2022/08/13 19:39:57;;;;;;;7.85;5.47;;;25.80;69.30;;;;;;10344322;28;20042;-64
2022/08/13 19:44:58;;;;;;;9.55;5.90;;;25.70;69.60;;;;;;10351165;28;20030;-65
2022/08/13 19:49:59;;;;;;;9.80;6.00;;;25.60;69.70;;;;;;10349468;28;20030;-65
2022/08/13 19:55:01;;;;;;;10.30;5.63;;;25.60;70.20;;;;;;10345354;28;20109;-65
2022/08/13 20:00:11;;;;;;;9.90;6.22;;;25.50;70.50;;;;;;10347475;28;20526;-66
2022/08/13 20:05:17;;;;;;;7.55;5.90;;;25.40;70.70;;;;;;10342733;28;20128;-65
2022/08/13 20:10:18;;;;;;;5.90;5.28;;;25.40;71.00;;;;;;10342840;28;20032;-66
2022/08/13 20:15:20;;;;;;;7.85;5.95;;;25.30;71.00;;;;;;10350882;28;20635;-64
2022/08/13 20:20:22;;;;;;;7.18;6.47;;;25.30;71.30;;;;;;10352151;28;20045;-64
2022/08/13 20:25:22;;;;;;;7.72;6.63;;;25.20;71.70;;;;;;10356913;28;20017;-65
2022/08/13 20:30:24;;;;;;;8.13;6.53;;;25.10;71.20;;;;;;10348610;28;20026;-65
2022/08/13 20:35:26;;;;;;;8.48;5.68;;;24.90;71.10;;;;;;10345315;28;20336;-66
2022/08/13 20:40:30;;;;;;;9.35;6.07;;;24.80;71.00;;;;;;10356577;28;20058;-65
2022/08/13 20:45:32;;;;;;;7.38;5.47;;;24.80;70.60;;;;;;10357602;28;20034;-66
2022/08/13 20:50:34;;;;;;;11.35;6.68;;;24.70;70.50;;;;;;10356721;28;20482;-66
2022/08/13 20:55:35;;;;;;;6.78;5.47;;;24.60;70.50;;;;;;10351973;28;20083;-65
2022/08/13 21:00:36;;;;;;;6.20;5.57;;;24.50;70.30;;;;;;10353808;28;20540;-66
2022/08/13 21:05:37;;;;;;;6.30;5.57;;;24.50;70.30;;;;;;10353726;28;20050;-65
2022/08/13 21:10:39;;;;;;;7.65;5.25;;;24.40;70.40;;;;;;10373269;28;20038;-64
2022/08/13 21:15:39;;;;;;;7.50;5.15;;;24.40;70.40;;;;;;10361051;28;20099;-64
2022/08/13 21:20:40;;;;;;;5.65;4.90;;;24.60;70.40;;;;;;10351829;28;20092;-62
2022/08/13 21:25:41;;;;;;;9.23;5.30;;;24.80;70.00;;;;;;10360545;28;20116;-61
2022/08/13 21:30:42;;;;;;;5.72;4.50;;;24.90;69.70;;;;;;10361090;28;20034;-62
2022/08/13 21:35:42;;;;;;;6.93;5.10;;;25.00;69.50;;;;;;10338234;28;20100;-62
2022/08/13 21:40:43;;;;;;;7.60;4.85;;;25.20;69.40;;;;;;10355483;28;20079;-63
2022/08/13 21:45:44;;;;;;;9.70;4.97;;;25.20;69.20;;;;;;10365208;28;20116;-62
2022/08/13 21:50:45;;;;;;;7.03;5.00;;;25.30;69.20;;;;;;10355911;28;20054;-62
2022/08/13 21:55:50;;;;;;;10.07;4.97;;;25.30;69.10;;;;;;10357810;28;20032;-62
2022/08/13 22:00:50;;;;;;;6.18;4.70;;;25.30;69.00;;;;;;10351640;28;20054;-63
2022/08/13 22:05:51;;;;;;;5.55;4.47;;;25.30;69.00;;;;;;10353265;28;20136;-62
2022/08/13 22:10:52;;;;;;;5.28;4.78;;;25.40;69.10;;;;;;10356168;28;20120;-62
2022/08/13 22:15:55;;;;;;;5.65;4.47;;;25.30;69.00;;;;;;10359479;28;20072;-62
2022/08/13 22:20:57;;;;;;;5.68;4.63;;;25.40;69.10;;;;;;10355437;28;20525;-67
2022/08/13 22:25:58;;;;;;;6.57;4.90;;;25.40;69.10;;;;;;10358493;28;20112;-62
2022/08/13 22:31:03;;;;;;;5.43;4.50;;;25.40;69.20;;;;;;10358916;28;20026;-62
2022/08/13 22:36:04;;;;;;;5.55;4.47;;;25.30;69.70;;;;;;10363759;28;20119;-63
2022/08/13 22:41:07;;;;;;;5.43;4.70;;;25.30;69.10;;;;;;10362618;28;20109;-62
2022/08/13 22:46:09;;;;;;;6.45;4.30;;;25.30;69.20;;;;;;10368975;28;20486;-63
2022/08/13 22:51:10;;;;;;;4.95;4.43;;;25.30;69.20;;;;;;10370742;28;20030;-66
2022/08/13 22:56:11;;;;;;;4.45;4.05;;;25.30;69.20;;;;;;10372111;28;20058;-63
2022/08/13 23:01:12;;;;;;;5.22;4.72;;;25.30;69.20;;;;;;10362832;28;20022;-62
2022/08/13 23:06:13;;;;;;;4.80;4.30;;;25.30;69.30;;;;;;10362732;28;20625;-62
2022/08/13 23:11:13;;;;;;;5.22;4.22;;;25.30;69.30;;;;;;10364724;28;20025;-63
2022/08/13 23:16:15;;;;;;;5.22;4.72;;;25.20;69.30;;;;;;10362088;28;20096;-62
2022/08/13 23:21:16;;;;;;;6.60;4.88;;;25.20;69.30;;;;;;10361481;28;20375;-62
2022/08/13 23:26:17;;;;;;;5.32;4.35;;;25.20;69.40;;;;;;10364892;28;20045;-64
2022/08/13 23:31:17;;;;;;;4.78;4.38;;;25.20;69.40;;;;;;10362672;28;20040;-63
2022/08/13 23:36:18;;;;;;;4.90;4.20;;;25.20;69.40;;;;;;10360354;28;20049;-62
2022/08/13 23:41:19;;;;;;;5.45;4.65;;;25.20;69.50;;;;;;10359817;28;20165;-63
2022/08/13 23:46:20;;;;;;;6.30;4.88;;;25.10;69.50;;;;;;10365981;28;20191;-63
2022/08/13 23:51:20;;;;;;;5.10;4.45;;;25.10;69.50;;;;;;10359918;28;20030;-63
2022/08/13 23:56:21;;;;;;;4.70;4.30;;;25.10;69.50;;;;;;10367416;28;20068;-63
